createdAt,value
2023-02-27T00:02:25.691Z,15.70
2023-02-27T00:04:54.671Z,21.30
2023-02-27T00:07:26.122Z,17.60
2023-02-27T00:09:54.501Z,48.60
2023-02-27T00:12:22.935Z,19.40
2023-02-27T00:14:51.594Z,16.90
2023-02-27T00:17:20.008Z,15.00
2023-02-27T00:19:48.355Z,13.90
2023-02-27T00:22:16.693Z,20.00
2023-02-27T00:24:45.036Z,18.30
2023-02-27T00:27:13.401Z,12.50
2023-02-27T00:29:41.910Z,14.40
2023-02-27T00:32:10.406Z,15.70
2023-02-27T00:34:38.838Z,14.10
2023-02-27T00:37:07.349Z,19.00
2023-02-27T00:39:35.669Z,14.40
2023-02-27T00:42:04.312Z,16.30
2023-02-27T00:44:32.809Z,16.10
2023-02-27T00:47:01.428Z,13.30
2023-02-27T00:49:29.852Z,15.50
2023-02-27T00:51:58.270Z,16.10
2023-02-27T00:54:26.779Z,17.70
2023-02-27T00:56:55.172Z,15.90
2023-02-27T00:59:23.592Z,15.80
2023-02-27T01:01:51.951Z,14.80
2023-02-27T01:04:20.338Z,21.50
2023-02-27T01:06:48.686Z,18.80
2023-02-27T01:09:17.100Z,20.10
2023-02-27T01:11:45.447Z,17.50
2023-02-27T01:14:14.115Z,19.60
2023-02-27T01:16:42.636Z,16.70
2023-02-27T01:19:11.180Z,11.10
2023-02-27T01:21:42.031Z,12.80
2023-02-27T01:24:12.482Z,15.30
2023-02-27T01:26:41.286Z,19.30
2023-02-27T01:29:10.074Z,12.70
2023-02-27T01:31:38.459Z,16.10
2023-02-27T01:34:06.902Z,10.30
2023-02-27T01:36:35.371Z,12.80
2023-02-27T01:39:03.962Z,12.00
2023-02-27T01:41:32.389Z,13.30
2023-02-27T01:44:03.926Z,15.60
2023-02-27T01:46:34.068Z,11.40
2023-02-27T01:49:17.777Z,12.20
2023-02-27T01:51:54.169Z,12.00
2023-02-27T01:54:26.908Z,13.00
2023-02-27T01:56:55.382Z,16.50
2023-02-27T01:59:24.345Z,10.50
2023-02-27T02:01:53.002Z,11.20
2023-02-27T02:04:31.364Z,11.50
2023-02-27T02:07:13.667Z,10.90
2023-02-27T02:09:50.842Z,8.00
2023-02-27T02:12:23.986Z,20.50
2023-02-27T02:14:52.677Z,20.00
2023-02-27T02:18:19.296Z,13.10
2023-02-27T02:21:22.639Z,11.70
2023-02-27T02:24:28.077Z,10.80
2023-02-27T02:27:04.709Z,15.00
2023-02-27T02:30:16.046Z,11.10
2023-02-27T02:33:17.281Z,8.90
2023-02-27T02:36:38.329Z,9.20
2023-02-27T02:39:43.969Z,10.70
2023-02-27T02:42:18.269Z,10.20
2023-02-27T02:45:16.228Z,9.60
2023-02-27T02:48:11.706Z,10.60
2023-02-27T02:51:11.053Z,12.30
2023-02-27T02:53:55.784Z,10.00
2023-02-27T02:56:49.778Z,11.30
2023-02-27T02:59:35.397Z,8.10
2023-02-27T03:02:09.052Z,9.20
2023-02-27T03:04:57.233Z,7.60
2023-02-27T03:07:55.987Z,7.50
2023-02-27T03:10:51.002Z,10.30
2023-02-27T03:13:39.010Z,9.70
2023-02-27T03:16:21.649Z,9.20
2023-02-27T03:18:57.121Z,9.20
2023-02-27T03:21:54.623Z,9.60
2023-02-27T03:24:33.740Z,10.70
2023-02-27T03:27:05.508Z,7.60
2023-02-27T03:29:47.706Z,10.90
2023-02-27T03:32:32.844Z,6.80
2023-02-27T03:35:03.162Z,13.20
2023-02-27T03:38:20.203Z,9.30
2023-02-27T03:41:29.482Z,9.70
2023-02-27T03:44:13.900Z,7.70
2023-02-27T03:46:42.473Z,14.20
2023-02-27T03:49:10.898Z,8.80
2023-02-27T03:51:39.478Z,9.10
2023-02-27T03:54:15.121Z,11.90
2023-02-27T03:57:05.965Z,7.50
2023-02-27T03:59:37.313Z,9.00
2023-02-27T04:02:05.848Z,9.50
2023-02-27T04:04:35.707Z,8.10
2023-02-27T04:07:25.069Z,9.10
2023-02-27T04:10:27.122Z,8.10
2023-02-27T04:13:35.296Z,8.80
2023-02-27T04:16:36.864Z,6.10
2023-02-27T04:19:39.485Z,7.40
2023-02-27T04:22:32.692Z,5.50
2023-02-27T04:25:23.643Z,6.20
2023-02-27T04:28:09.311Z,7.90
2023-02-27T04:31:02.768Z,6.40
2023-02-27T04:33:51.991Z,8.40
2023-02-27T04:36:41.752Z,11.00
2023-02-27T04:39:26.705Z,6.10
2023-02-27T04:42:16.222Z,5.60
2023-02-27T04:44:46.500Z,13.10
2023-02-27T04:47:18.132Z,9.30
2023-02-27T04:49:56.443Z,8.20
2023-02-27T04:52:36.564Z,8.80
2023-02-27T04:55:49.599Z,7.80
2023-02-27T04:58:27.956Z,9.40
2023-02-27T05:01:12.187Z,5.50
2023-02-27T05:03:47.057Z,5.90
2023-02-27T05:06:18.710Z,6.60
2023-02-27T05:09:01.412Z,8.40
2023-02-27T05:11:58.828Z,6.90
2023-02-27T05:14:41.964Z,9.50
2023-02-27T05:17:28.289Z,8.20
2023-02-27T05:19:56.974Z,7.00
2023-02-27T05:22:40.933Z,12.70
2023-02-27T05:25:16.638Z,8.70
2023-02-27T05:27:58.498Z,7.00
2023-02-27T05:30:34.942Z,6.40
2023-02-27T05:33:47.558Z,7.50
2023-02-27T05:36:41.297Z,7.70
2023-02-27T05:39:11.291Z,9.50
2023-02-27T05:41:47.763Z,4.70
2023-02-27T05:44:22.007Z,5.40
2023-02-27T05:47:02.008Z,6.80
2023-02-27T05:49:42.126Z,7.70
2023-02-27T05:52:18.997Z,6.30
2023-02-27T05:55:03.889Z,4.30
2023-02-27T05:58:01.815Z,5.20
2023-02-27T06:00:39.728Z,5.90
2023-02-27T06:03:08.443Z,5.70
2023-02-27T06:05:40.915Z,10.10
2023-02-27T06:08:10.709Z,5.40
2023-02-27T06:10:39.133Z,6.30
2023-02-27T06:13:07.552Z,6.60
2023-02-27T06:15:36.165Z,6.30
2023-02-27T06:18:05.336Z,5.60
2023-02-27T06:20:33.710Z,7.90
2023-02-27T06:23:02.191Z,4.90
2023-02-27T06:25:30.777Z,5.80
2023-02-27T06:27:59.811Z,7.50
2023-02-27T06:30:28.434Z,7.80
2023-02-27T06:32:57.303Z,8.20
2023-02-27T06:35:25.647Z,5.20
2023-02-27T06:37:54.068Z,6.60
2023-02-27T06:40:22.625Z,5.00
2023-02-27T06:42:51.435Z,8.50
2023-02-27T06:45:19.907Z,8.00
2023-02-27T06:47:48.278Z,8.20
2023-02-27T06:50:16.822Z,5.80
2023-02-27T06:52:45.133Z,7.70
2023-02-27T06:55:19.880Z,6.70
2023-02-27T06:57:49.769Z,14.20
2023-02-27T07:00:20.032Z,6.90
2023-02-27T07:02:48.765Z,7.60
2023-02-27T07:05:18.160Z,7.00
2023-02-27T07:07:46.750Z,9.50
2023-02-27T07:10:16.651Z,14.20
2023-02-27T07:12:45.145Z,20.40
2023-02-27T07:15:18.135Z,11.00
2023-02-27T07:17:46.467Z,13.80
2023-02-27T07:20:14.874Z,18.10
2023-02-27T07:22:43.723Z,26.20
2023-02-27T07:25:12.232Z,10.60
2023-02-27T07:27:41.075Z,7.40
2023-02-27T07:30:10.837Z,13.30
2023-02-27T07:32:39.267Z,9.10
2023-02-27T07:35:09.619Z,7.20
2023-02-27T07:37:38.687Z,10.40
2023-02-27T07:40:09.045Z,6.60
2023-02-27T07:42:37.433Z,11.20
2023-02-27T07:45:06.720Z,11.80
2023-02-27T07:47:35.979Z,11.20
2023-02-27T07:50:05.110Z,9.30
2023-02-27T07:52:33.562Z,5.80
2023-02-27T07:55:01.936Z,12.50
2023-02-27T07:57:30.343Z,10.70
2023-02-27T07:59:59.026Z,9.80
2023-02-27T08:02:27.440Z,8.70
2023-02-27T08:04:55.982Z,9.90
2023-02-27T08:07:25.839Z,6.60
2023-02-27T08:09:54.285Z,9.90
2023-02-27T08:12:22.804Z,6.80
2023-02-27T08:14:51.220Z,7.60
2023-02-27T08:17:19.561Z,7.50
2023-02-27T08:19:47.925Z,10.00
2023-02-27T08:22:16.319Z,7.50
2023-02-27T08:24:45.095Z,9.70
2023-02-27T08:27:13.574Z,10.40
2023-02-27T08:29:43.385Z,15.80
2023-02-27T08:32:12.067Z,9.80
2023-02-27T08:34:40.637Z,10.30
2023-02-27T08:37:09.416Z,12.20
2023-02-27T08:39:37.938Z,11.40
2023-02-27T08:42:07.419Z,7.00
2023-02-27T08:44:36.049Z,8.50
2023-02-27T08:47:04.570Z,9.70
2023-02-27T08:49:32.944Z,8.40
2023-02-27T08:52:01.305Z,13.90
2023-02-27T08:54:30.027Z,8.80
2023-02-27T08:56:58.416Z,8.70
2023-02-27T08:59:27.010Z,6.00
2023-02-27T09:01:55.461Z,6.50
2023-02-27T09:04:23.981Z,6.90
2023-02-27T09:06:53.765Z,6.20
2023-02-27T09:09:23.801Z,5.00
2023-02-27T09:11:52.354Z,5.80
2023-02-27T09:14:20.960Z,7.30
2023-02-27T09:16:49.609Z,6.30
2023-02-27T09:19:18.101Z,11.50
2023-02-27T09:21:46.448Z,5.90
2023-02-27T09:24:20.110Z,6.40
2023-02-27T09:26:49.890Z,6.20
2023-02-27T09:29:18.906Z,5.20
2023-02-27T09:31:47.495Z,6.20
2023-02-27T09:34:16.051Z,4.80
2023-02-27T09:36:44.446Z,7.30
2023-02-27T09:39:13.008Z,6.10
2023-02-27T09:46:07.057Z,5.80
2023-02-27T09:48:57.618Z,5.80
2023-02-27T09:51:27.782Z,5.00
2023-02-27T09:54:01.837Z,5.50
2023-02-27T09:56:48.781Z,5.50
2023-02-27T09:59:36.499Z,4.90
2023-02-27T10:02:40.643Z,6.50
2023-02-27T10:05:36.166Z,6.00
2023-02-27T10:08:23.668Z,9.50
2023-02-27T10:11:08.914Z,6.00
2023-02-27T10:14:18.905Z,4.20
2023-02-27T10:16:55.579Z,9.10
2023-02-27T10:29:21.674Z,9.20
2023-02-27T10:32:03.038Z,5.60
2023-02-27T10:34:33.491Z,5.00
2023-02-27T10:37:06.439Z,11.90
2023-02-27T10:39:49.200Z,27.40
2023-02-27T10:42:18.662Z,11.20
2023-02-27T10:44:53.571Z,19.20
2023-02-27T10:47:25.431Z,18.30
2023-02-27T10:49:54.820Z,6.20
2023-02-27T10:52:23.130Z,6.90
2023-02-27T10:54:51.525Z,12.70
2023-02-27T10:57:33.257Z,6.10
2023-02-27T11:00:09.584Z,31.60
2023-02-27T11:02:43.790Z,11.00
2023-02-27T11:05:51.718Z,19.70
2023-02-27T11:08:27.611Z,10.80
2023-02-27T11:11:11.848Z,10.10
2023-02-27T11:13:44.838Z,8.70
2023-02-27T11:16:21.813Z,5.20
2023-02-27T11:19:00.839Z,5.10
2023-02-27T11:21:31.045Z,3.60
2023-02-27T11:24:03.849Z,4.70
2023-02-27T11:27:17.635Z,4.40
2023-02-27T11:30:31.560Z,3.00
2023-02-27T11:33:01.633Z,3.60
2023-02-27T11:35:39.383Z,5.30
2023-02-27T11:41:10.858Z,5.00
2023-02-27T11:43:53.313Z,3.80
2023-02-27T11:46:46.517Z,5.30
2023-02-27T11:49:43.323Z,4.40
2023-02-27T11:52:19.714Z,4.40
2023-02-27T11:54:58.637Z,3.30
2023-02-27T11:57:40.076Z,2.30
2023-02-27T12:00:40.605Z,2.80
2023-02-27T12:03:50.561Z,2.20
2023-02-27T12:07:15.463Z,3.40
2023-02-27T12:09:57.853Z,3.00
2023-02-27T12:13:05.192Z,3.20
2023-02-27T12:16:01.291Z,2.30
2023-02-27T12:21:17.428Z,3.50
2023-02-27T12:24:14.048Z,4.40
2023-02-27T12:26:46.794Z,4.20
2023-02-27T12:29:41.412Z,7.20
2023-02-27T12:32:24.044Z,13.90
2023-02-27T12:35:20.654Z,5.70
2023-02-27T12:37:49.117Z,3.80
2023-02-27T12:40:21.186Z,5.90
2023-02-27T12:43:17.362Z,7.00
2023-02-27T12:48:57.537Z,6.70
2023-02-27T12:52:29.550Z,7.00
2023-02-27T12:55:17.147Z,6.80
2023-02-27T12:58:27.415Z,8.90
2023-02-27T13:01:21.316Z,10.60
2023-02-27T13:04:09.979Z,4.80
2023-02-27T13:06:41.455Z,4.20
2023-02-27T13:09:44.598Z,4.70
2023-02-27T13:12:38.313Z,4.70
2023-02-27T13:15:28.616Z,7.40
2023-02-27T13:18:46.674Z,7.80
2023-02-27T13:21:33.236Z,4.40
2023-02-27T13:24:19.479Z,5.80
2023-02-27T13:27:18.689Z,5.40
2023-02-27T13:33:15.105Z,5.40
2023-02-27T13:35:58.222Z,4.00
2023-02-27T13:38:51.427Z,3.20
2023-02-27T13:41:27.925Z,5.10
2023-02-27T13:43:58.802Z,5.00
2023-02-27T13:46:32.772Z,4.20
2023-02-27T13:49:20.057Z,5.50
2023-02-27T13:52:09.552Z,3.60
2023-02-27T13:54:41.585Z,7.10
2023-02-27T13:57:22.035Z,3.70
2023-02-27T14:00:27.158Z,3.00
2023-02-27T14:03:02.302Z,6.80
2023-02-27T14:05:36.670Z,4.70
2023-02-27T14:08:12.513Z,41.70
2023-02-27T14:13:54.603Z,15.20
2023-02-27T14:16:38.385Z,19.60
2023-02-27T14:19:15.752Z,8.50
2023-02-27T14:22:01.577Z,6.30
2023-02-27T14:27:23.977Z,13.60
2023-02-27T14:29:57.385Z,24.00
2023-02-27T14:32:34.045Z,33.10
2023-02-27T14:35:06.092Z,21.60
2023-02-27T14:37:36.385Z,36.40
2023-02-27T14:40:06.488Z,45.60
2023-02-27T14:43:35.781Z,40.80
2023-02-27T14:46:15.098Z,35.60
2023-02-27T14:48:43.540Z,31.00
2023-02-27T14:51:12.353Z,36.90
2023-02-27T14:53:40.938Z,43.60
2023-02-27T14:56:19.005Z,52.40
2023-02-27T14:58:55.484Z,30.40
2023-02-27T15:01:50.840Z,12.80
2023-02-27T15:04:22.848Z,8.70
2023-02-27T15:06:54.551Z,10.50
2023-02-27T15:12:39.334Z,10.00
2023-02-27T15:15:16.162Z,8.20
2023-02-27T15:17:46.229Z,9.40
2023-02-27T15:20:31.483Z,6.30
2023-02-27T15:23:02.844Z,9.30
2023-02-27T15:25:37.368Z,7.40
2023-02-27T15:28:26.375Z,8.40
2023-02-27T15:30:57.433Z,8.00
2023-02-27T15:33:33.485Z,9.50
2023-02-27T15:36:02.206Z,9.90
2023-02-27T15:38:34.452Z,77.00
2023-02-27T15:41:04.819Z,16.60
2023-02-27T15:43:33.340Z,11.90
2023-02-27T15:46:02.429Z,31.50
2023-02-27T15:48:32.371Z,21.40
2023-02-27T15:51:04.458Z,9.70
2023-02-27T15:53:34.254Z,7.80
2023-02-27T15:56:10.734Z,9.30
2023-02-27T15:58:50.761Z,7.50
2023-02-27T16:01:24.560Z,7.20
2023-02-27T16:04:00.033Z,10.90
2023-02-27T16:06:39.298Z,7.50
2023-02-27T16:09:23.190Z,12.90
2023-02-27T16:12:22.863Z,15.20
2023-02-27T16:14:53.705Z,12.60
2023-02-27T16:17:30.696Z,20.70
2023-02-27T16:20:04.372Z,13.70
2023-02-27T16:22:34.001Z,14.90
2023-02-27T16:25:21.409Z,27.30
2023-02-27T16:27:51.368Z,10.60
2023-02-27T16:30:20.098Z,12.90
2023-02-27T16:32:49.162Z,11.90
2023-02-27T16:35:22.802Z,14.70
2023-02-27T16:37:51.544Z,18.30
2023-02-27T16:40:30.121Z,13.60
2023-02-27T16:42:59.526Z,18.80
2023-02-27T16:45:31.325Z,12.20
2023-02-27T16:48:02.951Z,10.40
2023-02-27T16:50:41.142Z,12.00
2023-02-27T16:53:10.038Z,11.80
2023-02-27T16:55:41.845Z,9.40
2023-02-27T16:58:17.370Z,6.80
2023-02-27T17:00:46.249Z,8.10
2023-02-27T17:03:14.917Z,9.20
2023-02-27T17:05:43.520Z,15.10
2023-02-27T17:08:12.863Z,24.70
2023-02-27T17:10:42.067Z,22.70
2023-02-27T17:13:10.747Z,20.60
2023-02-27T17:15:39.339Z,15.20
2023-02-27T17:18:09.418Z,13.70
2023-02-27T17:20:42.159Z,9.50
2023-02-27T17:23:14.338Z,10.80
2023-02-27T17:25:43.160Z,6.50
2023-02-27T17:28:12.824Z,8.60
2023-02-27T17:30:42.083Z,10.40
2023-02-27T17:33:10.916Z,13.30
2023-02-27T17:36:17.712Z,12.90
2023-02-27T17:38:48.200Z,14.10
2023-02-27T17:41:17.001Z,10.70
2023-02-27T17:43:54.434Z,11.60
2023-02-27T17:46:25.217Z,12.20
2023-02-27T17:48:54.798Z,9.30
2023-02-27T17:51:23.172Z,12.50
2023-02-27T17:53:51.626Z,9.80
2023-02-27T17:56:20.234Z,8.80
2023-02-27T17:58:49.096Z,9.20
2023-02-27T18:01:28.427Z,10.40
2023-02-27T18:03:57.100Z,6.70
2023-02-27T18:06:31.279Z,6.50
2023-02-27T18:09:00.323Z,17.00
2023-02-27T18:11:28.816Z,29.80
2023-02-27T18:13:57.396Z,24.10
2023-02-27T18:16:26.156Z,23.00
2023-02-27T18:18:54.897Z,21.50
2023-02-27T18:21:24.332Z,19.40
2023-02-27T18:23:53.146Z,19.50
2023-02-27T18:26:30.343Z,17.20
2023-02-27T18:29:08.247Z,15.80
2023-02-27T18:31:42.909Z,27.60
2023-02-27T18:34:12.564Z,84.80
2023-02-27T18:36:40.932Z,27.70
2023-02-27T18:39:09.485Z,26.60
2023-02-27T18:41:38.784Z,32.00
2023-02-27T18:44:08.379Z,44.00
2023-02-27T18:46:38.820Z,68.00
2023-02-27T18:49:07.986Z,39.80
2023-02-27T18:51:36.541Z,42.80
2023-02-27T18:54:08.339Z,55.60
2023-02-27T18:56:36.750Z,31.20
2023-02-27T18:59:06.766Z,19.10
2023-02-27T19:01:41.563Z,33.80
2023-02-27T19:04:10.156Z,17.90
2023-02-27T19:06:42.299Z,16.80
2023-02-27T19:09:16.226Z,21.40
2023-02-27T19:11:47.184Z,16.40
2023-02-27T19:14:17.066Z,19.40
2023-02-27T19:16:46.602Z,14.60
2023-02-27T19:19:15.407Z,25.50
2023-02-27T19:21:47.948Z,21.60
2023-02-27T19:24:19.143Z,19.10
2023-02-27T19:26:47.978Z,16.60
2023-02-27T19:29:16.647Z,16.70
2023-02-27T19:31:45.518Z,20.40
2023-02-27T19:34:15.268Z,22.00
2023-02-27T19:36:44.039Z,15.80
2023-02-27T19:39:12.552Z,15.00
2023-02-27T19:41:41.418Z,29.20
2023-02-27T19:44:09.888Z,33.90
2023-02-27T19:46:40.881Z,22.40
2023-02-27T19:49:10.811Z,14.30
2023-02-27T19:51:41.068Z,16.10
2023-02-27T19:54:14.278Z,15.70
2023-02-27T19:56:43.325Z,18.10
2023-02-27T19:59:12.704Z,17.70
2023-02-27T20:01:41.622Z,19.00
2023-02-27T20:04:11.558Z,17.70
2023-02-27T20:06:44.918Z,21.50
2023-02-27T20:09:17.250Z,15.20
2023-02-27T20:11:48.230Z,21.70
2023-02-27T20:14:17.416Z,18.80
2023-02-27T20:16:46.326Z,23.30
2023-02-27T20:19:18.483Z,17.70
2023-02-27T20:21:47.560Z,20.90
2023-02-27T20:24:18.202Z,21.60
2023-02-27T20:26:52.401Z,21.40
2023-02-27T20:29:24.254Z,16.20
2023-02-27T20:31:55.508Z,17.40
2023-02-27T20:34:26.588Z,17.50
2023-02-27T20:37:00.281Z,15.70
2023-02-27T20:39:29.170Z,13.80
2023-02-27T20:42:00.737Z,16.60
2023-02-27T20:44:29.919Z,17.90
2023-02-27T20:46:58.657Z,19.30
2023-02-27T20:49:27.097Z,20.40
2023-02-27T20:51:55.822Z,17.30
2023-02-27T20:54:25.850Z,20.60
2023-02-27T20:56:54.561Z,17.60
2023-02-27T20:59:25.544Z,23.00
2023-02-27T21:01:55.052Z,28.80
2023-02-27T21:04:43.157Z,31.30
2023-02-27T21:07:18.566Z,29.20
2023-02-27T21:09:47.774Z,29.20
2023-02-27T21:12:17.620Z,26.30
2023-02-27T21:14:48.624Z,27.80
2023-02-27T21:17:19.745Z,31.00
2023-02-27T21:19:48.148Z,29.10
2023-02-27T21:22:17.227Z,24.10
2023-02-27T21:24:46.824Z,25.80
2023-02-27T21:27:19.736Z,25.40
2023-02-27T21:29:50.081Z,28.90
2023-02-27T21:32:19.021Z,26.30
2023-02-27T21:34:47.550Z,28.50
2023-02-27T21:37:15.930Z,25.40
2023-02-27T21:39:50.116Z,24.70
2023-02-27T21:42:18.914Z,21.70
2023-02-27T21:44:47.478Z,22.60
2023-02-27T21:47:16.490Z,25.20
2023-02-27T21:49:44.910Z,24.70
2023-02-27T21:52:13.448Z,25.70
2023-02-27T21:54:42.195Z,28.20
2023-02-27T21:57:10.952Z,23.80
2023-02-27T21:59:40.837Z,24.00
2023-02-27T22:02:13.483Z,27.10
2023-02-27T22:04:42.052Z,25.20
2023-02-27T22:07:11.492Z,31.50
2023-02-27T22:09:45.822Z,24.70
2023-02-27T22:12:16.152Z,23.90
2023-02-27T22:14:45.051Z,23.40
2023-02-27T22:17:13.504Z,22.70
2023-02-27T22:19:41.950Z,24.40
2023-02-27T22:22:13.482Z,25.50
2023-02-27T22:24:42.515Z,26.10
2023-02-27T22:27:10.968Z,29.20
2023-02-27T22:29:40.722Z,24.10
2023-02-27T22:32:10.281Z,29.00
2023-02-27T22:34:38.709Z,22.80
2023-02-27T22:37:07.102Z,20.80
2023-02-27T22:39:35.669Z,26.80
2023-02-27T22:42:04.276Z,24.40
2023-02-27T22:44:32.681Z,21.60
2023-02-27T22:47:01.309Z,31.20
2023-02-27T22:49:29.728Z,22.90
2023-02-27T22:51:58.198Z,26.90
2023-02-27T22:54:26.712Z,28.50
2023-02-27T22:56:57.954Z,28.90
2023-02-27T22:59:27.259Z,24.40
2023-02-27T23:01:55.718Z,22.90
2023-02-27T23:04:24.356Z,27.10
2023-02-27T23:06:55.825Z,26.20
2023-02-27T23:09:27.336Z,25.70
2023-02-27T23:12:03.967Z,26.60
2023-02-27T23:14:33.737Z,25.20
2023-02-27T23:17:02.166Z,20.70
2023-02-27T23:19:32.402Z,26.50
2023-02-27T23:22:00.871Z,21.90
2023-02-27T23:24:29.228Z,20.40
2023-02-27T23:26:58.070Z,19.10
2023-02-27T23:29:26.489Z,19.60
2023-02-27T23:31:54.985Z,17.90
2023-02-27T23:34:23.939Z,19.50
2023-02-27T23:36:52.357Z,23.30
2023-02-27T23:39:20.853Z,23.50
2023-02-27T23:41:49.508Z,22.10
2023-02-27T23:44:17.967Z,25.20
2023-02-27T23:46:46.472Z,21.00
2023-02-27T23:49:14.862Z,20.20
2023-02-27T23:51:43.473Z,22.10
2023-02-27T23:54:12.088Z,24.30
2023-02-27T23:56:40.500Z,14.80
2023-02-27T23:59:09.337Z,21.90
